首页
METAR-TAF:

METAR-TAF

机场 :

Lemhi County Airport

Salmon, 爱达荷州, 美国

纬度: 45-07N, 经度: 113-53W, 海拔: 1233米

当前天气观测

该预报发布于20分钟前的05:56 UTC
风速15节,风向,有时为20节阵风
温度 10°C
湿度 62%
气压 1012 hPa
能見度: 16.1公里
少量云层高于6000英尺
多云层高于7000英尺

METAR: KSMN 260556Z AUTO 01015G20KT 10SM FEW060 BKN070 10/03 A2988 RMK AO2 SLP112 6//// T01000033 10156 20100 51020

时间: 00:16 (06:16 UTC)

预报

该预报发布于56分钟前的05:20 UTC
预报有效从26日的 06点(UTC)到 27日的 06点(UTC)
风速7节,风向北转东北
能見度: 10公里
多云层高于6000英尺
从 26日的 2000点(UTC)
风速10节,风向北转西北,有时为20节阵风
能見度: 10公里
多云层高于10000英尺
从 27日的 0200点(UTC)
风速4节,风向多变
能見度: 10公里
多云层高于25000英尺

TAF: KSMN 260520Z 2606/2706 03007KT P6SM BKN060 FM262000 34010G20KT P6SM BKN100 FM270200 VRB04KT P6SM BKN250

超过4000个机场的气象观测和天气预报(METAR&TAF报告)。

可查询的气象台以黄色和红色小点在地图上表示。

将鼠标移到小点上方,可查看气象台名称。

然后点击查看天气观测和预报。

如需切换地图:点击带黑十字的绿色按钮放大地图;点击带横线的绿色按钮缩小地图;或者点击绿色箭头查看邻近地区的地图。


METAR-TAF: